PRIVATE WETTERSTATION BILLIGHEIM-ALLFELD                       ZURCK
Wetterdaten: Dienstag, 29.03.2016
Datum Zeit Temp. A. Temp. A. min Temp. A. max Feuchte A. Luftdruck Regen Wind Richtung Richtung Sonnenschein ET Solar Taupunkt Windchill Windben Empfang
29.03.2016 00:00 7,4 C 7,3 C 7,4 C 90 % 1005,3 hPa 0,0 l/m 6,4 km/h (2 Bft) S-SW 202 0 min 0,000 mm 0 W/m 5,9 C 7,4 C 17,7 km/h (3 Bft) 100 %
29.03.2016 00:10 7,4 C 7,4 C 7,4 C 90 % 1005,4 hPa 0,0 l/m 6,4 km/h (2 Bft) S-SW 202 0 min 0,000 mm 0 W/m 5,9 C 7,4 C 16,1 km/h (3 Bft) 100 %
29.03.2016 00:20 7,4 C 7,4 C 7,4 C 91 % 1005,6 hPa 0,2 l/m 8,0 km/h (2 Bft) S-SW 202 0 min 0,000 mm 0 W/m 6,0 C 6,1 C 17,7 km/h (3 Bft) 100 %
29.03.2016 00:30 7,4 C 7,4 C 7,4 C 91 % 1005,5 hPa 0,0 l/m 8,0 km/h (2 Bft) S-SW 202 0 min 0,000 mm 0 W/m 6,0 C 6,1 C 16,1 km/h (3 Bft) 100 %
29.03.2016 00:40 7,3 C 7,3 C 7,4 C 91 % 1005,1 hPa 0,0 l/m 11,3 km/h (2 Bft) S-SW 202 0 min 0,000 mm 0 W/m 5,9 C 3,8 C 20,9 km/h (4 Bft) 100 %
29.03.2016 00:50 7,2 C 7,2 C 7,3 C 91 % 1005,1 hPa 0,0 l/m 6,4 km/h (2 Bft) S 180 0 min 0,000 mm 0 W/m 5,8 C 7,2 C 19,3 km/h (3 Bft) 100 %
29.03.2016 01:00 7,1 C 7,1 C 7,2 C 91 % 1005,0 hPa 0,0 l/m 4,8 km/h (1 Bft) S-SW 202 0 min 0,000 mm 0 W/m 5,7 C 7,1 C 14,5 km/h (3 Bft) 100 %
29.03.2016 01:10 7,1 C 7,1 C 7,1 C 91 % 1004,9 hPa 0,0 l/m 6,4 km/h (2 Bft) S-SO 157 0 min 0,000 mm 0 W/m 5,7 C 7,1 C 16,1 km/h (3 Bft) 100 %
29.03.2016 01:20 7,2 C 7,1 C 7,2 C 91 % 1004,7 hPa 0,0 l/m 9,7 km/h (2 Bft) S-SO 157 0 min 0,000 mm 0 W/m 5,8 C 4,7 C 19,3 km/h (3 Bft) 100 %
29.03.2016 01:30 7,3 C 7,1 C 7,3 C 91 % 1004,8 hPa 0,0 l/m 11,3 km/h (2 Bft) S 180 0 min 0,000 mm 0 W/m 5,9 C 3,8 C 29,0 km/h (5 Bft) 100 %
29.03.2016 01:40 7,3 C 7,2 C 7,3 C 91 % 1004,6 hPa 0,0 l/m 11,3 km/h (2 Bft) S-SO 157 0 min 0,000 mm 0 W/m 5,9 C 3,8 C 24,1 km/h (4 Bft) 100 %
29.03.2016 01:50 7,3 C 7,3 C 7,3 C 91 % 1004,8 hPa 0,0 l/m 11,3 km/h (2 Bft) S-SO 157 0 min 0,000 mm 0 W/m 5,9 C 3,8 C 24,1 km/h (4 Bft) 100 %
29.03.2016 02:00 7,0 C 7,0 C 7,3 C 89 % 1006,5 hPa 1,2 l/m 24,1 km/h (4 Bft) W-NW 292 0 min 0,025 mm 0 W/m 5,3 C -2,0 C 53,1 km/h (7 Bft) 100 %
29.03.2016 02:10 6,6 C 6,6 C 7,0 C 88 % 1006,1 hPa 0,0 l/m 22,5 km/h (4 Bft) W 270 0 min 0,000 mm 0 W/m 4,8 C -2,0 C 46,7 km/h (6 Bft) 100 %
29.03.2016 02:20 6,3 C 6,3 C 6,6 C 88 % 1005,8 hPa 0,0 l/m 17,7 km/h (3 Bft) W 270 0 min 0,000 mm 0 W/m 4,5 C -0,6 C 38,6 km/h (5 Bft) 100 %
29.03.2016 02:30 6,3 C 6,3 C 6,4 C 87 % 1006,1 hPa 0,0 l/m 17,7 km/h (3 Bft) W 270 0 min 0,000 mm 0 W/m 4,3 C -0,6 C 32,2 km/h (5 Bft) 100 %
29.03.2016 02:40 6,3 C 6,3 C 6,3 C 87 % 1006,3 hPa 0,0 l/m 17,7 km/h (3 Bft) W-SW 247 0 min 0,000 mm 0 W/m 4,3 C -0,6 C 33,8 km/h (5 Bft) 100 %
29.03.2016 02:50 6,3 C 6,3 C 6,3 C 87 % 1006,7 hPa 0,0 l/m 19,3 km/h (3 Bft) SW 225 0 min 0,000 mm 0 W/m 4,3 C -1,2 C 38,6 km/h (5 Bft) 100 %
29.03.2016 03:00 6,1 C 6,1 C 6,3 C 88 % 1007,0 hPa 0,2 l/m 17,7 km/h (3 Bft) SW 225 0 min 0,025 mm 0 W/m 4,3 C -0,8 C 35,4 km/h (5 Bft) 100 %
29.03.2016 03:10 5,9 C 5,9 C 6,1 C 88 % 1007,3 hPa 0,0 l/m 20,9 km/h (4 Bft) SW 225 0 min 0,000 mm 0 W/m 4,1 C -2,3 C 48,3 km/h (6 Bft) 100 %
29.03.2016 03:20 5,7 C 5,7 C 5,9 C 90 % 1007,3 hPa 0,4 l/m 16,1 km/h (3 Bft) SW 225 0 min 0,000 mm 0 W/m 4,2 C -0,6 C 32,2 km/h (5 Bft) 100 %
29.03.2016 03:30 5,6 C 5,6 C 5,7 C 90 % 1007,5 hPa 0,2 l/m 14,5 km/h (3 Bft) W-SW 247 0 min 0,000 mm 0 W/m 4,1 C 0,1 C 32,2 km/h (5 Bft) 100 %
29.03.2016 03:40 5,6 C 5,6 C 5,6 C 90 % 1007,2 hPa 0,4 l/m 14,5 km/h (3 Bft) W-SW 247 0 min 0,000 mm 0 W/m 4,1 C 0,1 C 37,0 km/h (5 Bft) 100 %
29.03.2016 03:50 5,6 C 5,6 C 5,6 C 90 % 1007,3 hPa 0,0 l/m 12,9 km/h (3 Bft) W 270 0 min 0,000 mm 0 W/m 4,1 C 0,9 C 27,4 km/h (4 Bft) 100 %
29.03.2016 04:00 5,6 C 5,6 C 5,6 C 89 % 1007,2 hPa 0,0 l/m 14,5 km/h (3 Bft) W-SW 247 0 min 0,025 mm 0 W/m 3,9 C 0,1 C 32,2 km/h (5 Bft) 100 %
29.03.2016 04:10 5,6 C 5,6 C 5,7 C 89 % 1007,3 hPa 0,0 l/m 14,5 km/h (3 Bft) W-SW 247 0 min 0,000 mm 0 W/m 3,9 C 0,1 C 35,4 km/h (5 Bft) 100 %
29.03.2016 04:20 5,7 C 5,6 C 5,7 C 88 % 1007,5 hPa 0,0 l/m 14,5 km/h (3 Bft) W-SW 247 0 min 0,000 mm 0 W/m 3,9 C 0,2 C 32,2 km/h (5 Bft) 100 %
29.03.2016 04:30 5,8 C 5,7 C 5,8 C 88 % 1007,9 hPa 0,0 l/m 16,1 km/h (3 Bft) W-SW 247 0 min 0,000 mm 0 W/m 4,0 C -0,5 C 32,2 km/h (5 Bft) 100 %
29.03.2016 04:40 5,8 C 5,8 C 5,8 C 88 % 1007,9 hPa 0,4 l/m 19,3 km/h (3 Bft) W 270 0 min 0,000 mm 0 W/m 4,0 C -1,9 C 41,8 km/h (6 Bft) 100 %
29.03.2016 04:50 5,7 C 5,7 C 5,8 C 89 % 1008,0 hPa 0,0 l/m 14,5 km/h (3 Bft) W-SW 247 0 min 0,000 mm 0 W/m 4,0 C 0,2 C 33,8 km/h (5 Bft) 100 %
29.03.2016 05:00 5,5 C 5,4 C 5,7 C 89 % 1008,2 hPa 0,0 l/m 12,9 km/h (3 Bft) SW 225 0 min 0,025 mm 0 W/m 3,8 C 0,8 C 27,4 km/h (4 Bft) 100 %
29.03.2016 05:10 5,4 C 5,4 C 5,5 C 89 % 1008,3 hPa 0,0 l/m 14,5 km/h (3 Bft) W-SW 247 0 min 0,000 mm 0 W/m 3,7 C -0,2 C 35,4 km/h (5 Bft) 100 %
29.03.2016 05:20 5,6 C 5,4 C 5,6 C 88 % 1008,4 hPa 0,0 l/m 20,9 km/h (4 Bft) W-SW 247 0 min 0,000 mm 0 W/m 3,8 C -2,7 C 37,0 km/h (5 Bft) 100 %
29.03.2016 05:30 5,6 C 5,6 C 5,6 C 88 % 1008,7 hPa 0,0 l/m 14,5 km/h (3 Bft) W-SW 247 0 min 0,000 mm 0 W/m 3,8 C 0,1 C 35,4 km/h (5 Bft) 100 %
29.03.2016 05:40 5,6 C 5,6 C 5,6 C 88 % 1008,7 hPa 0,0 l/m 11,3 km/h (2 Bft) W 270 0 min 0,000 mm 0 W/m 3,8 C 1,9 C 20,9 km/h (4 Bft) 100 %
29.03.2016 05:50 5,6 C 5,6 C 5,6 C 88 % 1008,8 hPa 0,0 l/m 9,7 km/h (2 Bft) W 270 0 min 0,000 mm 0 W/m 3,8 C 2,9 C 19,3 km/h (3 Bft) 100 %
29.03.2016 06:00 5,5 C 5,5 C 5,6 C 88 % 1008,8 hPa 0,0 l/m 8,0 km/h (2 Bft) W-SW 247 0 min 0,025 mm 0 W/m 3,7 C 4,1 C 17,7 km/h (3 Bft) 100 %
29.03.2016 06:10 5,3 C 5,3 C 5,5 C 89 % 1009,0 hPa 0,0 l/m 8,0 km/h (2 Bft) SW 225 0 min 0,000 mm 0 W/m 3,6 C 3,9 C 16,1 km/h (3 Bft) 100 %
29.03.2016 06:20 5,3 C 5,3 C 5,3 C 90 % 1009,1 hPa 0,0 l/m 9,7 km/h (2 Bft) SW 225 0 min 0,000 mm 0 W/m 3,8 C 2,6 C 27,4 km/h (4 Bft) 100 %
29.03.2016 06:30 5,3 C 5,3 C 5,3 C 90 % 1009,2 hPa 0,0 l/m 8,0 km/h (2 Bft) SW 225 0 min 0,000 mm 0 W/m 3,8 C 3,9 C 19,3 km/h (3 Bft) 100 %
29.03.2016 06:40 5,4 C 5,3 C 5,4 C 89 % 1009,3 hPa 0,0 l/m 8,0 km/h (2 Bft) SW 225 0 min 0,000 mm 0 W/m 3,7 C 4,0 C 20,9 km/h (4 Bft) 100 %
29.03.2016 06:50 5,4 C 5,4 C 5,4 C 94 % 1009,3 hPa 0,0 l/m 8,0 km/h (2 Bft) SW 225 0 min 0,000 mm 0 W/m 4,5 C 4,0 C 19,3 km/h (3 Bft) 100 %
29.03.2016 07:00 5,4 C 5,4 C 5,5 C 89 % 1009,3 hPa 0,0 l/m 8,0 km/h (2 Bft) S-SW 202 0 min 0,000 mm 0 W/m 3,7 C 4,0 C 16,1 km/h (3 Bft) 100 %
29.03.2016 07:10 5,3 C 5,3 C 5,4 C 90 % 1009,5 hPa 0,0 l/m 11,3 km/h (2 Bft) S-SW 202 0 min 0,000 mm 0 W/m 3,8 C 1,5 C 20,9 km/h (4 Bft) 100 %
29.03.2016 07:20 5,3 C 5,3 C 5,3 C 90 % 1009,7 hPa 0,0 l/m 12,9 km/h (3 Bft) S-SW 202 0 min 0,000 mm 5 W/m 3,8 C 0,6 C 24,1 km/h (4 Bft) 99 %
29.03.2016 07:30 5,4 C 5,3 C 5,4 C 90 % 1009,8 hPa 0,0 l/m 12,9 km/h (3 Bft) SW 225 0 min 0,000 mm 9 W/m 3,9 C 0,7 C 33,8 km/h (5 Bft) 100 %
29.03.2016 07:40 5,4 C 5,4 C 5,4 C 90 % 1009,9 hPa 0,0 l/m 14,5 km/h (3 Bft) SW 225 0 min 0,000 mm 11 W/m 3,9 C -0,2 C 27,4 km/h (4 Bft) 100 %
29.03.2016 07:50 5,3 C 5,3 C 5,4 C 90 % 1010,1 hPa 0,0 l/m 14,5 km/h (3 Bft) S-SW 202 0 min 0,000 mm 19 W/m 3,8 C -0,3 C 24,1 km/h (4 Bft) 100 %
29.03.2016 08:00 5,2 C 5,2 C 5,3 C 90 % 1010,2 hPa 0,0 l/m 12,9 km/h (3 Bft) SW 225 0 min 0,025 mm 63 W/m 3,7 C 0,5 C 25,7 km/h (4 Bft) 100 %
29.03.2016 08:10 5,2 C 5,2 C 5,2 C 89 % 1010,4 hPa 0,0 l/m 14,5 km/h (3 Bft) SW 225 0 min 0,000 mm 42 W/m 3,5 C -0,4 C 32,2 km/h (5 Bft) 100 %
29.03.2016 08:20 5,3 C 5,2 C 5,3 C 88 % 1010,5 hPa 0,0 l/m 16,1 km/h (3 Bft) W-SW 247 0 min 0,000 mm 95 W/m 3,5 C -1,1 C 40,2 km/h (6 Bft) 100 %
29.03.2016 08:30 5,7 C 5,3 C 5,7 C 87 % 1010,6 hPa 0,0 l/m 14,5 km/h (3 Bft) W-SW 247 10 min 0,000 mm 162 W/m 3,7 C 0,2 C 25,7 km/h (4 Bft) 91 %
29.03.2016 08:40 6,2 C 5,7 C 6,2 C 86 % 1010,8 hPa 0,0 l/m 12,9 km/h (3 Bft) W-SW 247 10 min 0,000 mm 243 W/m 4,0 C 1,6 C 27,4 km/h (4 Bft) 100 %
29.03.2016 08:50 6,1 C 6,1 C 6,2 C 86 % 1011,0 hPa 0,0 l/m 14,5 km/h (3 Bft) SW 225 0 min 0,000 mm 98 W/m 3,9 C 0,7 C 27,4 km/h (4 Bft) 100 %
29.03.2016 09:00 6,0 C 5,9 C 6,1 C 86 % 1011,0 hPa 0,0 l/m 12,9 km/h (3 Bft) SW 225 0 min 0,051 mm 111 W/m 3,8 C 1,4 C 22,5 km/h (4 Bft) 100 %
29.03.2016 09:10 6,1 C 5,9 C 6,1 C 86 % 1011,1 hPa 0,0 l/m 14,5 km/h (3 Bft) SW 225 10 min 0,000 mm 329 W/m 3,9 C 0,7 C 30,6 km/h (5 Bft) 100 %
29.03.2016 09:20 6,1 C 6,1 C 6,1 C 85 % 1011,2 hPa 0,0 l/m 12,9 km/h (3 Bft) SW 225 0 min 0,000 mm 109 W/m 3,8 C 1,5 C 25,7 km/h (4 Bft) 99 %
29.03.2016 09:30 6,2 C 6,1 C 6,2 C 85 % 1011,3 hPa 0,0 l/m 14,5 km/h (3 Bft) SW 225 10 min 0,000 mm 162 W/m 3,9 C 0,8 C 30,6 km/h (5 Bft) 100 %
29.03.2016 09:40 6,6 C 6,2 C 6,6 C 82 % 1011,3 hPa 0,0 l/m 17,7 km/h (3 Bft) SW 225 10 min 0,000 mm 431 W/m 3,8 C -0,2 C 37,0 km/h (5 Bft) 100 %
29.03.2016 09:50 7,0 C 6,6 C 7,0 C 81 % 1011,3 hPa 0,0 l/m 19,3 km/h (3 Bft) SW 225 10 min 0,000 mm 295 W/m 4,0 C -0,3 C 37,0 km/h (5 Bft) 100 %
29.03.2016 10:00 7,3 C 7,0 C 7,3 C 79 % 1011,4 hPa 0,0 l/m 16,1 km/h (3 Bft) W-SW 247 10 min 0,102 mm 306 W/m 3,9 C 1,4 C 37,0 km/h (5 Bft) 100 %
29.03.2016 10:10 7,5 C 7,3 C 7,5 C 80 % 1011,4 hPa 0,0 l/m 14,5 km/h (3 Bft) SW 225 10 min 0,000 mm 216 W/m 4,3 C 2,3 C 30,6 km/h (5 Bft) 100 %
29.03.2016 10:20 8,3 C 7,5 C 8,3 C 78 % 1011,4 hPa 0,0 l/m 14,5 km/h (3 Bft) SW 225 10 min 0,000 mm 496 W/m 4,7 C 3,3 C 30,6 km/h (5 Bft) 100 %
29.03.2016 10:30 8,9 C 8,3 C 8,9 C 73 % 1011,4 hPa 0,0 l/m 19,3 km/h (3 Bft) SW 225 10 min 0,000 mm 563 W/m 4,3 C 2,1 C 37,0 km/h (5 Bft) 100 %
29.03.2016 10:40 9,0 C 8,9 C 9,0 C 71 % 1011,4 hPa 0,0 l/m 22,5 km/h (4 Bft) W-SW 247 10 min 0,000 mm 585 W/m 4,0 C 1,2 C 38,6 km/h (5 Bft) 100 %
29.03.2016 10:50 8,9 C 8,8 C 9,1 C 70 % 1011,5 hPa 0,0 l/m 22,5 km/h (4 Bft) W-SW 247 10 min 0,000 mm 668 W/m 3,7 C 1,1 C 41,8 km/h (6 Bft) 100 %
29.03.2016 11:00 9,2 C 8,9 C 9,2 C 67 % 1011,7 hPa 0,0 l/m 24,1 km/h (4 Bft) SW 225 10 min 0,203 mm 610 W/m 3,4 C 1,0 C 48,3 km/h (6 Bft) 100 %
29.03.2016 11:10 9,7 C 9,2 C 9,7 C 65 % 1011,8 hPa 0,0 l/m 27,4 km/h (4 Bft) SW 225 10 min 0,000 mm 677 W/m 3,4 C 0,8 C 53,1 km/h (7 Bft) 89 %
29.03.2016 11:20 9,8 C 9,7 C 9,8 C 67 % 1011,7 hPa 0,0 l/m 22,5 km/h (4 Bft) W-SW 247 10 min 0,000 mm 737 W/m 4,0 C 2,3 C 48,3 km/h (6 Bft) 100 %
29.03.2016 11:30 9,8 C 9,6 C 9,8 C 69 % 1011,9 hPa 0,0 l/m 16,1 km/h (3 Bft) W 270 10 min 0,000 mm 724 W/m 4,4 C 4,4 C 32,2 km/h (5 Bft) 100 %
29.03.2016 11:40 10,3 C 9,8 C 10,4 C 65 % 1011,8 hPa 0,0 l/m 20,9 km/h (4 Bft) SW 225 10 min 0,000 mm 715 W/m 4,0 C 3,4 C 40,2 km/h (6 Bft) 100 %
29.03.2016 11:50 10,6 C 9,8 C 10,6 C 65 % 1011,9 hPa 0,0 l/m 16,3 km/h (3 Bft) W 279 10 min 0,002 mm 768 W/m 4,3 C 5,3 C 29,0 km/h (5 Bft) 100 %
29.03.2016 12:00 10,4 C 10,4 C 10,7 C 63 % 1011,9 hPa 0,0 l/m 24,1 km/h (4 Bft) W-SW 246 10 min 0,356 mm 874 W/m 3,7 C 2,6 C 41,8 km/h (6 Bft) 100 %
29.03.2016 12:10 10,8 C 10,4 C 10,8 C 64 % 1012,0 hPa 0,0 l/m 21,4 km/h (4 Bft) S-SW 205 10 min 0,000 mm 874 W/m 4,3 C 3,9 C 37,0 km/h (5 Bft) 91 %
29.03.2016 12:20 10,8 C 10,8 C 11,0 C 60 % 1011,9 hPa 0,0 l/m 24,7 km/h (4 Bft) W-SW 237 10 min 0,000 mm 209 W/m 3,4 C 3,0 C 48,3 km/h (6 Bft) 100 %
29.03.2016 12:30 10,9 C 10,7 C 10,9 C 60 % 1011,9 hPa 0,0 l/m 20,0 km/h (4 Bft) W-SW 244 10 min 0,000 mm 728 W/m 3,4 C 4,4 C 41,8 km/h (6 Bft) 99 %
29.03.2016 12:40 10,9 C 10,9 C 10,9 C 59 % 1012,0 hPa 0,0 l/m 20,7 km/h (4 Bft) SW 227 10 min 0,000 mm 791 W/m 3,2 C 4,2 C 40,2 km/h (6 Bft) 100 %
29.03.2016 12:50 11,0 C 10,8 C 11,0 C 59 % 1011,8 hPa 0,0 l/m 20,8 km/h (4 Bft) W-NW 292 10 min 0,000 mm 693 W/m 3,3 C 4,3 C 33,8 km/h (5 Bft) 100 %
29.03.2016 13:00 11,4 C 11,0 C 11,4 C 59 % 1011,8 hPa 0,0 l/m 18,4 km/h (3 Bft) W 259 10 min 0,406 mm 789 W/m 3,7 C 5,6 C 32,2 km/h (5 Bft) 100 %
29.03.2016 13:10 11,4 C 11,4 C 11,5 C 56 % 1011,9 hPa 0,0 l/m 20,3 km/h (4 Bft) SW 230 10 min 0,000 mm 726 W/m 2,9 C 5,0 C 45,1 km/h (6 Bft) 100 %
29.03.2016 13:20 11,4 C 11,3 C 11,4 C 59 % 1011,9 hPa 0,0 l/m 22,2 km/h (4 Bft) W 265 10 min 0,000 mm 670 W/m 3,7 C 4,5 C 37,0 km/h (5 Bft) 100 %
29.03.2016 13:30 11,3 C 11,3 C 11,4 C 59 % 1012,0 hPa 0,0 l/m 20,9 km/h (4 Bft) W-SW 250 10 min 0,000 mm 320 W/m 3,6 C 4,7 C 37,0 km/h (5 Bft) 100 %
29.03.2016 13:40 11,4 C 11,3 C 11,6 C 58 % 1011,9 hPa 0,0 l/m 20,3 km/h (4 Bft) S-SW 207 10 min 0,000 mm 276 W/m 3,4 C 5,0 C 33,8 km/h (5 Bft) 100 %
29.03.2016 13:50 10,8 C 10,8 C 11,4 C 58 % 1012,1 hPa 0,0 l/m 18,3 km/h (3 Bft) W-SW 250 10 min 0,000 mm 171 W/m 2,9 C 4,9 C 38,6 km/h (5 Bft) 100 %
29.03.2016 14:00 10,4 C 10,4 C 10,8 C 59 % 1012,0 hPa 0,0 l/m 16,0 km/h (3 Bft) W 269 10 min 0,000 mm 185 W/m 2,7 C 5,2 C 37,0 km/h (5 Bft) 100 %
29.03.2016 14:10 10,5 C 10,4 C 10,5 C 62 % 1012,1 hPa 0,0 l/m 10,2 km/h (2 Bft) SW 226 10 min 0,305 mm 155 W/m 3,5 C 8,0 C 24,1 km/h (4 Bft) 100 %
29.03.2016 14:20 10,6 C 10,5 C 10,6 C 64 % 1012,0 hPa 0,0 l/m 10,8 km/h (2 Bft) W-SW 250 10 min 0,000 mm 290 W/m 4,1 C 7,8 C 25,7 km/h (4 Bft) 100 %
29.03.2016 14:30 10,5 C 10,5 C 10,6 C 64 % 1011,8 hPa 0,0 l/m 11,1 km/h (2 Bft) SW 225 10 min 0,000 mm 234 W/m 4,0 C 7,5 C 24,1 km/h (4 Bft) 100 %
29.03.2016 14:40 10,5 C 10,5 C 10,6 C 62 % 1011,8 hPa 0,0 l/m 12,8 km/h (3 Bft) SW 218 10 min 0,000 mm 207 W/m 3,5 C 6,7 C 33,8 km/h (5 Bft) 100 %
29.03.2016 14:50 10,8 C 10,5 C 10,8 C 65 % 1011,7 hPa 0,0 l/m 15,6 km/h (3 Bft) S-SW 206 10 min 0,000 mm 686 W/m 4,5 C 5,9 C 29,0 km/h (5 Bft) 100 %
29.03.2016 15:00 11,8 C 10,8 C 11,8 C 61 % 1011,7 hPa 0,0 l/m 15,5 km/h (3 Bft) SW 218 10 min 0,203 mm 700 W/m 4,5 C 7,1 C 33,8 km/h (5 Bft) 100 %
29.03.2016 15:10 11,9 C 11,8 C 12,0 C 59 % 1011,5 hPa 0,0 l/m 16,4 km/h (3 Bft) W-SW 247 10 min 0,000 mm 213 W/m 4,1 C 6,9 C 29,0 km/h (5 Bft) 100 %
29.03.2016 15:20 11,6 C 11,6 C 11,9 C 61 % 1011,6 hPa 0,0 l/m 11,5 km/h (2 Bft) SW 232 0 min 0,000 mm 88 W/m 4,3 C 8,6 C 27,4 km/h (4 Bft) 100 %
29.03.2016 15:30 11,2 C 11,2 C 11,6 C 63 % 1011,9 hPa 0,0 l/m 7,6 km/h (2 Bft) SW 234 0 min 0,000 mm 121 W/m 4,4 C 10,4 C 17,7 km/h (3 Bft) 100 %
29.03.2016 15:40 10,7 C 10,7 C 11,2 C 64 % 1012,0 hPa 0,0 l/m 14,4 km/h (3 Bft) W-SW 250 0 min 0,000 mm 88 W/m 4,2 C 6,2 C 27,4 km/h (4 Bft) 100 %
29.03.2016 15:50 9,7 C 9,7 C 10,7 C 70 % 1012,1 hPa 0,2 l/m 19,0 km/h (3 Bft) W 267 0 min 0,000 mm 107 W/m 4,5 C 3,2 C 41,8 km/h (6 Bft) 100 %
29.03.2016 16:00 9,4 C 9,3 C 9,7 C 71 % 1011,9 hPa 0,0 l/m 9,2 km/h (2 Bft) W-SW 258 0 min 0,127 mm 90 W/m 4,4 C 7,4 C 22,5 km/h (4 Bft) 100 %
29.03.2016 16:10 9,4 C 9,3 C 9,4 C 70 % 1011,9 hPa 0,0 l/m 7,4 km/h (2 Bft) W 265 0 min 0,000 mm 123 W/m 4,2 C 8,7 C 19,3 km/h (3 Bft) 100 %
29.03.2016 16:20 9,6 C 9,4 C 9,6 C 69 % 1012,0 hPa 0,0 l/m 10,9 km/h (2 Bft) W-NW 302 0 min 0,000 mm 127 W/m 4,2 C 6,6 C 25,7 km/h (4 Bft) 100 %
29.03.2016 16:30 9,8 C 9,6 C 9,8 C 70 % 1011,8 hPa 0,0 l/m 10,5 km/h (2 Bft) NW 304 10 min 0,000 mm 165 W/m 4,6 C 7,1 C 22,5 km/h (4 Bft) 100 %
29.03.2016 16:40 9,8 C 9,8 C 9,9 C 69 % 1011,9 hPa 0,0 l/m 13,7 km/h (3 Bft) NW 313 0 min 0,000 mm 146 W/m 4,4 C 5,5 C 30,6 km/h (5 Bft) 100 %
29.03.2016 16:50 9,8 C 9,8 C 9,8 C 70 % 1012,1 hPa 0,0 l/m 11,2 km/h (2 Bft) W 265 0 min 0,000 mm 125 W/m 4,6 C 6,7 C 20,9 km/h (4 Bft) 100 %
29.03.2016 17:00 9,7 C 9,7 C 9,8 C 72 % 1011,7 hPa 0,0 l/m 8,5 km/h (2 Bft) W 259 0 min 0,102 mm 148 W/m 4,9 C 8,2 C 22,5 km/h (4 Bft) 100 %
29.03.2016 17:10 9,7 C 9,7 C 9,7 C 71 % 1011,7 hPa 0,0 l/m 6,8 km/h (2 Bft) W 267 0 min 0,000 mm 109 W/m 4,7 C 9,4 C 19,3 km/h (3 Bft) 100 %
29.03.2016 17:20 9,7 C 9,7 C 9,7 C 71 % 1011,8 hPa 0,0 l/m 6,2 km/h (2 Bft) W-SW 241 0 min 0,000 mm 125 W/m 4,7 C 9,7 C 17,7 km/h (3 Bft) 100 %
29.03.2016 17:30 9,7 C 9,7 C 9,7 C 72 % 1012,0 hPa 0,0 l/m 5,8 km/h (2 Bft) W 272 0 min 0,000 mm 63 W/m 4,9 C 9,7 C 14,5 km/h (3 Bft) 100 %
29.03.2016 17:40 9,7 C 9,7 C 9,7 C 72 % 1011,9 hPa 0,0 l/m 4,0 km/h (1 Bft) W-NW 300 0 min 0,000 mm 81 W/m 4,9 C 9,7 C 16,1 km/h (3 Bft) 100 %
29.03.2016 17:50 9,6 C 9,6 C 9,7 C 73 % 1011,9 hPa 0,0 l/m 3,5 km/h (1 Bft) W-SW 238 0 min 0,000 mm 46 W/m 5,0 C 9,6 C 14,5 km/h (3 Bft) 100 %
29.03.2016 18:00 9,6 C 9,6 C 9,6 C 73 % 1012,1 hPa 0,0 l/m 6,3 km/h (2 Bft) W 277 0 min 0,050 mm 33 W/m 5,0 C 9,6 C 16,1 km/h (3 Bft) 100 %
29.03.2016 18:10 9,4 C 9,4 C 9,6 C 77 % 1011,9 hPa 0,0 l/m 4,6 km/h (1 Bft) SW 221 0 min 0,000 mm 49 W/m 5,6 C 9,4 C 12,9 km/h (3 Bft) 100 %
29.03.2016 18:20 9,2 C 9,2 C 9,4 C 76 % 1011,6 hPa 0,0 l/m 2,9 km/h (1 Bft) W-NW 284 0 min 0,000 mm 65 W/m 5,2 C 9,2 C 11,3 km/h (2 Bft) 100 %
29.03.2016 18:30 9,2 C 9,1 C 9,2 C 77 % 1011,7 hPa 0,0 l/m 1,2 km/h (1 Bft) W-SW 258 0 min 0,000 mm 67 W/m 5,4 C 9,2 C 11,3 km/h (2 Bft) 100 %
29.03.2016 18:40 9,1 C 9,1 C 9,2 C 77 % 1011,6 hPa 0,0 l/m 3,1 km/h (1 Bft) SW 219 0 min 0,000 mm 56 W/m 5,3 C 9,1 C 11,3 km/h (2 Bft) 100 %
29.03.2016 18:50 9,0 C 9,0 C 9,1 C 79 % 1011,7 hPa 0,0 l/m 3,9 km/h (1 Bft) SW 218 0 min 0,000 mm 49 W/m 5,6 C 9,0 C 11,3 km/h (2 Bft) 100 %
29.03.2016 19:00 8,9 C 8,9 C 9,0 C 79 % 1011,8 hPa 0,0 l/m 4,3 km/h (1 Bft) SW 215 0 min 0,026 mm 39 W/m 5,5 C 8,9 C 8,0 km/h (2 Bft) 100 %
29.03.2016 19:10 8,7 C 8,7 C 8,9 C 80 % 1011,9 hPa 0,0 l/m 2,1 km/h (1 Bft) S-SW 192 0 min 0,000 mm 26 W/m 5,4 C 8,7 C 8,0 km/h (2 Bft) 100 %
29.03.2016 19:20 8,6 C 8,6 C 8,7 C 80 % 1011,9 hPa 0,0 l/m 3,0 km/h (1 Bft) S-SO 161 0 min 0,000 mm 14 W/m 5,3 C 8,6 C 6,4 km/h (2 Bft) 100 %
29.03.2016 19:30 8,6 C 8,6 C 8,6 C 80 % 1011,9 hPa 0,0 l/m 2,8 km/h (1 Bft) S-SO 153 0 min 0,000 mm 9 W/m 5,3 C 8,6 C 6,4 km/h (2 Bft) 92 %
29.03.2016 19:40 8,5 C 8,5 C 8,6 C 81 % 1011,9 hPa 0,0 l/m 2,0 km/h (1 Bft) S-SO 150 0 min 0,000 mm 0 W/m 5,4 C 8,5 C 9,7 km/h (2 Bft) 100 %
29.03.2016 19:50 8,4 C 8,4 C 8,5 C 82 % 1012,2 hPa 0,0 l/m 3,7 km/h (1 Bft) S-SW 192 0 min 0,000 mm 0 W/m 5,5 C 8,4 C 8,0 km/h (2 Bft) 100 %
29.03.2016 20:00 8,3 C 8,3 C 8,4 C 82 % 1012,6 hPa 0,0 l/m 3,1 km/h (1 Bft) S-SW 207 0 min 0,025 mm 0 W/m 5,4 C 8,3 C 8,0 km/h (2 Bft) 100 %
29.03.2016 20:10 8,2 C 8,2 C 8,3 C 83 % 1012,5 hPa 0,4 l/m 4,3 km/h (1 Bft) W 279 0 min 0,000 mm 0 W/m 5,5 C 8,2 C 22,5 km/h (4 Bft) 100 %
29.03.2016 20:20 8,1 C 8,1 C 8,2 C 84 % 1012,4 hPa 0,0 l/m 0,0 km/h (0 Bft) W 279 0 min 0,000 mm 0 W/m 5,6 C 8,1 C 0,0 km/h (0 Bft) 100 %
29.03.2016 20:30 7,3 C 7,3 C 8,1 C 88 % 1012,5 hPa 0,0 l/m 2,2 km/h (1 Bft) S-SO 148 0 min 0,000 mm 0 W/m 5,4 C 7,3 C 6,4 km/h (2 Bft) 100 %
29.03.2016 20:40 7,0 C 7,0 C 7,3 C 89 % 1012,5 hPa 0,0 l/m 1,6 km/h (1 Bft) S-SO 148 0 min 0,000 mm 0 W/m 5,3 C 7,0 C 6,4 km/h (2 Bft) 100 %
29.03.2016 20:50 6,9 C 6,9 C 7,0 C 89 % 1012,7 hPa 0,0 l/m 0,0 km/h (0 Bft) S-SO 148 0 min 0,000 mm 0 W/m 5,2 C 6,9 C 1,6 km/h (1 Bft) 100 %
29.03.2016 21:00 6,9 C 6,9 C 6,9 C 89 % 1012,5 hPa 0,0 l/m 0,8 km/h (0 Bft) S 175 0 min 0,000 mm 0 W/m 5,2 C 6,9 C 4,8 km/h (1 Bft) 100 %
29.03.2016 21:10 6,9 C 6,9 C 6,9 C 89 % 1012,7 hPa 0,0 l/m 0,0 km/h (0 Bft) S-SW 195 0 min 0,000 mm 0 W/m 5,2 C 6,9 C 1,6 km/h (1 Bft) 100 %
29.03.2016 21:21 6,9 C 6,8 C 6,9 C 88 % 1012,7 hPa 0,0 l/m 0,8 km/h (0 Bft) SW 219 0 min 0,000 mm 0 W/m 5,1 C 6,9 C 9,7 km/h (2 Bft) 100 %
29.03.2016 21:30 6,8 C 6,8 C 6,9 C 88 % 1012,7 hPa 0,0 l/m 1,9 km/h (1 Bft) SW 223 0 min 0,000 mm 0 W/m 5,0 C 6,8 C 6,4 km/h (2 Bft) 99 %
29.03.2016 21:40 6,7 C 6,7 C 6,8 C 88 % 1012,6 hPa 0,0 l/m 2,5 km/h (1 Bft) S 178 0 min 0,000 mm 0 W/m 4,9 C 6,7 C 6,4 km/h (2 Bft) 100 %
29.03.2016 21:50 6,8 C 6,7 C 6,8 C 87 % 1012,7 hPa 0,0 l/m 0,0 km/h (0 Bft) S 178 0 min 0,000 mm 0 W/m 4,8 C 6,8 C 0,0 km/h (0 Bft) 100 %
29.03.2016 22:00 6,7 C 6,7 C 6,8 C 87 % 1012,7 hPa 0,0 l/m 0,0 km/h (0 Bft) S 178 0 min 0,000 mm 0 W/m 4,7 C 6,7 C 0,0 km/h (0 Bft) 100 %
29.03.2016 22:10 6,7 C 6,7 C 6,7 C 87 % 1012,8 hPa 0,0 l/m 0,0 km/h (0 Bft) S 178 0 min 0,000 mm 0 W/m 4,7 C 6,7 C 0,0 km/h (0 Bft) 100 %
29.03.2016 22:20 6,7 C 6,7 C 6,7 C 86 % 1012,7 hPa 0,0 l/m 0,0 km/h (0 Bft) S 178 0 min 0,000 mm 0 W/m 4,5 C 6,7 C 1,6 km/h (1 Bft) 100 %
29.03.2016 22:30 6,7 C 6,6 C 6,7 C 86 % 1012,8 hPa 0,0 l/m 0,0 km/h (0 Bft) S-SO 164 0 min 0,000 mm 0 W/m 4,5 C 6,7 C 1,6 km/h (1 Bft) 100 %
29.03.2016 22:40 6,6 C 6,6 C 6,7 C 86 % 1012,8 hPa 0,0 l/m 0,1 km/h (0 Bft) S-SO 164 0 min 0,000 mm 0 W/m 4,4 C 6,6 C 1,6 km/h (1 Bft) 100 %
29.03.2016 22:50 6,7 C 6,7 C 6,7 C 85 % 1012,6 hPa 0,0 l/m 0,0 km/h (0 Bft) S-SO 157 0 min 0,000 mm 0 W/m 4,4 C 6,7 C 4,8 km/h (1 Bft) 98 %
29.03.2016 23:00 6,6 C 6,6 C 6,7 C 85 % 1012,6 hPa 0,0 l/m 1,6 km/h (1 Bft) S-SO 157 0 min 0,000 mm 0 W/m 4,3 C 6,6 C 4,8 km/h (1 Bft) 96 %
29.03.2016 23:10 6,3 C 6,3 C 6,6 C 86 % 1012,4 hPa 0,0 l/m 0,0 km/h (0 Bft) N 0 0 min 0,000 mm 0 W/m 4,1 C 6,3 C 0,0 km/h (0 Bft) 98 %
29.03.2016 23:20 5,9 C 5,9 C 6,3 C 86 % 1012,4 hPa 0,0 l/m 0,0 km/h (0 Bft) N 0 0 min 0,000 mm 0 W/m 3,7 C 5,9 C 0,0 km/h (0 Bft) 97 %
29.03.2016 23:30 5,6 C 5,6 C 5,9 C 88 % 1012,4 hPa 0,0 l/m 0,0 km/h (0 Bft) N 0 0 min 0,000 mm 0 W/m 3,8 C 5,6 C 0,0 km/h (0 Bft) 98 %
29.03.2016 23:40 5,2 C 5,2 C 5,6 C 90 % 1012,5 hPa 0,0 l/m 1,6 km/h (1 Bft) S-SO 157 0 min 0,000 mm 0 W/m 3,7 C 5,2 C 6,4 km/h (2 Bft) 97 %
29.03.2016 23:50 4,9 C 4,9 C 5,2 C 90 % 1012,5 hPa 0,0 l/m 0,0 km/h (0 Bft) N 0 0 min 0,000 mm 0 W/m 3,4 C 4,9 C 0,0 km/h (0 Bft) 98 %
_ Min-Zeit 23:50 23:50 08:10 13:10 01:40 - 20:20 - - - - - 14:00 05:20 20:20 11:10
Minimum _ 4,9 C 4,9 C 5,2 C 56 % 1004,6 hPa - 0,0 km/h (0 Bft) - - - - - 2,7 C -2,7 C 0,0 km/h (0 Bft) 89 %
_ Max-Zeit 15:10 15:10 15:10 06:50 22:10 02:00 11:10 - - 08:30 13:00 12:00 00:20 15:30 02:00 00:00
Maximum _ 12,0 C 11,8 C 12,0 C 94 % 1012,8 hPa 1,2 l/m 27,4 km/h
SW (4 Bft)
- - 10 min 0,406 mm 874 W/m 6,0 C 10,4 C 53,1 km/h
W-NW (7 Bft)
100 %
Durchschnitt _ 7,8 C 7,7 C 7,9 C 80 % 1010,4 hPa #3,6 l/m 11,1 km/h (2 Bft) SW - #6:30 h #2,108 mm 286 W/m 4,4 C 4,3 C 23,9 km/h (4 Bft) 99 %
PRIVATE WETTERSTATION BILLIGHEIM-ALLFELD - www.neckar-odenwald-wetter.de - Holger Sonntag